Time;durP1;ratioP1;P1;durP2;ratioP2;P2;SDS_P1;SDS_P2;PMS_P1;PMS_P2;Temp;Humidity;BMP_temperature;BMP_pressure;BME280_temperature;BME280_humidity;BME280_pressure;Samples;Min_cycle;Max_cycle;Signal;HPM_P1;HPM_P2
2022/01/16 00:00:05;;;;;;;;;;;;;;;20.16;40.85;100823.75;2085011;28;19912;-40
2022/01/16 00:01:34;;;;;;;;;;;;;;;20.16;40.96;100828.38;2082472;28;19920;-40
2022/01/16 00:04:56;;;;;;;;;;;;;;;20.10;40.85;100836.16;2083315;28;19976;-40
2022/01/16 00:05:56;;;;;;;;;;;;;;;20.09;40.97;100836.31;2084518;28;20554;-40
2022/01/16 00:07:01;;;;;;;;;;;;;;;20.08;41.10;100834.56;2084319;28;19919;-40
2022/01/16 00:08:02;;;;;;;;;;;;;;;20.08;41.23;100829.94;2083463;28;19928;-40
2022/01/16 00:09:03;;;;;;;;;;;;;;;20.05;41.07;100832.97;2083958;28;19913;-41
2022/01/16 00:10:03;;;;;;;;;;;;;;;20.04;41.25;100836.72;2083570;28;20344;-40
2022/01/16 00:11:04;;;;;;;;;;;;;;;20.03;41.23;100840.44;2082729;28;19912;-40
2022/01/16 00:12:06;;;;;;;;;;;;;;;20.02;41.34;100838.72;2083226;28;20130;-39
2022/01/16 00:13:06;;;;;;;;;;;;;;;20.01;41.31;100834.22;2084315;28;19993;-40
2022/01/16 00:14:07;;;;;;;;;;;;;;;20.00;41.36;100827.03;2084008;28;19912;-40
2022/01/16 00:15:08;;;;;;;;;;;;;;;20.01;41.31;100808.75;2082929;28;19909;-41
2022/01/16 00:16:12;;;;;;;;;;;;;;;19.99;41.45;100787.00;2083025;28;19913;-40
2022/01/16 00:17:13;;;;;;;;;;;;;;;19.99;41.31;100778.81;2082107;28;19921;-40
2022/01/16 00:18:22;;;;;;;;;;;;;;;20.00;41.29;100774.19;2081732;28;19984;-40
2022/01/16 00:19:22;;;;;;;;;;;;;;;19.98;41.30;100790.72;2080121;28;19924;-40
2022/01/16 00:20:24;;;;;;;;;;;;;;;19.98;41.43;100809.88;2083974;28;19912;-40
2022/01/16 00:21:28;;;;;;;;;;;;;;;19.98;41.34;100804.41;2082286;28;19913;-40
2022/01/16 00:22:33;;;;;;;;;;;;;;;19.97;41.32;100794.50;2082975;28;19912;-40
2022/01/16 00:23:33;;;;;;;;;;;;;;;19.98;41.34;100787.13;2082318;28;20239;-40
2022/01/16 00:24:34;;;;;;;;;;;;;;;19.98;41.30;100788.00;2082965;28;19920;-40
2022/01/16 00:25:34;;;;;;;;;;;;;;;19.96;41.39;100795.47;2082650;28;19942;-40
2022/01/16 00:26:36;;;;;;;;;;;;;;;19.98;41.32;100803.56;2076253;28;19920;-40
2022/01/16 00:27:36;;;;;;;;;;;;;;;19.98;41.43;100798.09;2087090;28;19926;-40
2022/01/16 00:28:36;;;;;;;;;;;;;;;19.99;41.41;100799.81;2084316;28;19943;-40
2022/01/16 00:29:36;;;;;;;;;;;;;;;19.97;41.43;100797.22;2084147;28;19925;-40
2022/01/16 00:30:37;;;;;;;;;;;;;;;19.97;41.38;100808.16;2081200;28;20011;-40
2022/01/16 00:31:37;;;;;;;;;;;;;;;19.97;41.37;100824.59;2091821;28;20179;-40
2022/01/16 00:32:38;;;;;;;;;;;;;;;19.94;41.29;100808.41;2091122;28;20449;-40
2022/01/16 00:33:39;;;;;;;;;;;;;;;19.96;41.28;100806.41;2083647;28;19970;-40
2022/01/16 00:34:39;;;;;;;;;;;;;;;19.94;41.40;100778.31;2086514;28;19946;-40
2022/01/16 00:35:40;;;;;;;;;;;;;;;19.97;41.26;100783.53;2082366;28;20385;-40
2022/01/16 00:36:40;;;;;;;;;;;;;;;19.96;41.31;100800.09;2080784;28;19966;-40
2022/01/16 00:37:41;;;;;;;;;;;;;;;19.95;41.32;100821.13;2081181;28;19920;-41
2022/01/16 00:38:45;;;;;;;;;;;;;;;19.95;41.39;100818.38;2084341;28;19916;-40
2022/01/16 00:39:45;;;;;;;;;;;;;;;19.94;41.34;100797.47;2080303;28;20175;-40
2022/01/16 00:40:45;;;;;;;;;;;;;;;19.96;41.37;100805.56;2083404;28;19985;-39
2022/01/16 00:41:47;;;;;;;;;;;;;;;19.94;41.40;100813.03;2084194;28;20417;-39
2022/01/16 00:42:47;;;;;;;;;;;;;;;19.94;41.34;100838.53;2081240;28;19969;-39
2022/01/16 00:43:51;;;;;;;;;;;;;;;19.93;41.36;100845.00;2083058;28;19920;-41
2022/01/16 00:44:52;;;;;;;;;;;;;;;19.86;41.34;100838.34;2080947;28;20007;-41
2022/01/16 00:45:52;;;;;;;;;;;;;;;19.76;41.78;100826.50;2079117;28;19912;-41
2022/01/16 00:46:52;;;;;;;;;;;;;;;19.66;41.83;100832.75;2082879;28;20444;-41
2022/01/16 00:47:53;;;;;;;;;;;;;;;19.58;41.99;100846.25;2083696;28;19934;-41
2022/01/16 00:48:53;;;;;;;;;;;;;;;19.52;42.07;100852.25;2084899;28;19963;-41
2022/01/16 00:49:53;;;;;;;;;;;;;;;19.48;42.21;100850.78;2081961;28;19962;-41
2022/01/16 00:50:54;;;;;;;;;;;;;;;19.43;42.35;100836.66;2083350;28;19939;-41
2022/01/16 00:51:55;;;;;;;;;;;;;;;19.39;42.46;100824.25;2085205;28;19962;-41
2022/01/16 00:52:55;;;;;;;;;;;;;;;19.38;42.38;100817.94;2082463;28;19912;-41
2022/01/16 00:53:55;;;;;;;;;;;;;;;19.34;42.37;100789.13;2085764;28;20463;-41
2022/01/16 00:54:58;;;;;;;;;;;;;;;19.33;42.36;100764.63;2084491;28;20426;-41
2022/01/16 00:55:59;;;;;;;;;;;;;;;19.31;42.45;100755.72;2083314;28;20254;-41
2022/01/16 00:56:59;;;;;;;;;;;;;;;19.30;42.50;100748.50;2084517;28;19917;-41
2022/01/16 00:57:59;;;;;;;;;;;;;;;19.27;42.56;100766.03;2082095;28;19939;-41
2022/01/16 00:59:00;;;;;;;;;;;;;;;19.25;42.50;100768.91;2081411;28;19925;-41
2022/01/16 01:00:00;;;;;;;;;;;;;;;19.24;42.66;100767.19;2084808;28;19917;-41
2022/01/16 01:01:00;;;;;;;;;;;;;;;19.23;42.58;100770.94;2080025;28;20299;-41
2022/01/16 01:02:00;;;;;;;;;;;;;;;19.23;42.66;100770.03;2082698;28;19920;-41
2022/01/16 01:03:01;;;;;;;;;;;;;;;19.22;42.62;100773.78;2082922;28;20799;-41
2022/01/16 01:04:02;;;;;;;;;;;;;;;19.20;42.60;100776.66;2080073;28;20270;-41
2022/01/16 01:05:02;;;;;;;;;;;;;;;19.19;42.76;100769.47;2078252;28;19920;-41
2022/01/16 01:06:03;;;;;;;;;;;;;;;19.19;42.79;100774.94;2083841;28;20548;-41
2022/01/16 01:07:03;;;;;;;;;;;;;;;19.17;42.72;100782.38;2084004;28;20363;-41
2022/01/16 01:08:04;;;;;;;;;;;;;;;19.17;42.77;100812.44;2083052;28;19920;-41
2022/01/16 01:09:05;;;;;;;;;;;;;;;19.16;42.71;100818.06;2079162;28;20323;-41
2022/01/16 01:10:06;;;;;;;;;;;;;;;19.16;42.78;100813.47;2084210;28;20401;-41
2022/01/16 01:11:11;;;;;;;;;;;;;;;19.14;42.71;100800.94;2079466;28;20270;-41
2022/01/16 01:12:23;;;;;;;;;;;;;;;19.13;42.77;100797.31;2083952;28;20369;-41
2022/01/16 01:15:26;;;;;;;;;;;;;;;19.11;42.71;100826.66;2084214;28;19916;-41
2022/01/16 01:16:38;;;;;;;;;;;;;;;19.09;42.85;100823.19;2080963;28;19970;-41
2022/01/16 01:17:49;;;;;;;;;;;;;;;19.10;42.64;100815.84;2083140;28;19923;-41
2022/01/16 01:18:49;;;;;;;;;;;;;;;19.08;42.91;100815.97;2084834;28;19912;-41
2022/01/16 01:19:50;;;;;;;;;;;;;;;19.07;42.84;100822.44;2085212;28;19922;-41
2022/01/16 01:20:51;;;;;;;;;;;;;;;19.06;42.78;100832.53;2083884;28;19913;-41
2022/01/16 01:21:52;;;;;;;;;;;;;;;19.06;42.75;100828.94;2079339;28;20536;-41
2022/01/16 01:22:52;;;;;;;;;;;;;;;19.04;42.76;100831.78;2079848;28;20011;-41
2022/01/16 01:23:54;;;;;;;;;;;;;;;19.04;42.85;100856.38;2082162;28;19917;-41
2022/01/16 01:24:54;;;;;;;;;;;;;;;19.05;42.80;100870.91;2078525;28;20330;-41
2022/01/16 01:25:54;;;;;;;;;;;;;;;19.03;42.98;100859.22;2081460;28;19917;-41
2022/01/16 01:28:01;;;;;;;;;;;;;;;19.02;42.88;100846.56;2084685;28;19924;-41
2022/01/16 01:29:02;;;;;;;;;;;;;;;19.00;42.77;100840.38;2094002;28;19963;-41
2022/01/16 01:30:06;;;;;;;;;;;;;;;19.00;42.87;100840.38;2085977;28;20154;-41
2022/01/16 01:31:06;;;;;;;;;;;;;;;18.99;42.96;100844.97;2083506;28;19932;-41
2022/01/16 01:32:07;;;;;;;;;;;;;;;19.00;42.99;100854.03;2085355;28;19924;-41
2022/01/16 01:33:07;;;;;;;;;;;;;;;18.99;42.86;100865.97;2086103;28;19921;-41
2022/01/16 01:34:07;;;;;;;;;;;;;;;18.98;42.89;100861.47;2085377;28;19920;-41
2022/01/16 01:35:09;;;;;;;;;;;;;;;18.98;42.93;100866.94;2085151;28;19998;-41
2022/01/16 01:36:09;;;;;;;;;;;;;;;18.99;43.02;100865.97;2080872;28;19912;-41
2022/01/16 01:37:09;;;;;;;;;;;;;;;18.96;42.88;100866.19;2081095;28;19920;-41
2022/01/16 01:38:11;;;;;;;;;;;;;;;18.95;43.14;100872.69;2084122;28;19921;-41
2022/01/16 01:39:11;;;;;;;;;;;;;;;18.93;42.86;100883.72;2087282;28;20329;-41
2022/01/16 01:40:16;;;;;;;;;;;;;;;18.93;43.09;100880.13;2083482;28;19951;-41
2022/01/16 01:41:16;;;;;;;;;;;;;;;18.94;42.97;100880.00;2079314;28;19925;-41
2022/01/16 01:42:17;;;;;;;;;;;;;;;18.93;43.13;100877.41;2086221;28;19928;-41
2022/01/16 01:51:07;;;;;;;;;;;;;;;18.94;42.85;100901.00;2085606;28;19913;-41
2022/01/16 01:52:08;;;;;;;;;;;;;;;18.94;42.83;100895.56;2084514;28;20337;-41
2022/01/16 01:53:08;;;;;;;;;;;;;;;18.94;42.81;100896.41;2084732;28;19948;-41
2022/01/16 01:54:08;;;;;;;;;;;;;;;18.95;42.83;100898.13;2085487;28;19917;-41
2022/01/16 01:55:09;;;;;;;;;;;;;;;18.98;42.80;100913.41;2086234;28;20765;-41
2022/01/16 01:56:13;;;;;;;;;;;;;;;18.99;42.72;100920.63;2084020;28;19973;-42
2022/01/16 01:57:13;;;;;;;;;;;;;;;19.00;42.74;100922.34;2085868;28;20011;-41
2022/01/16 01:58:14;;;;;;;;;;;;;;;19.02;42.80;100920.34;2084918;28;20354;-41
2022/01/16 01:59:15;;;;;;;;;;;;;;;19.02;42.56;100918.47;2080968;28;20384;-41
2022/01/16 02:00:18;;;;;;;;;;;;;;;19.04;42.52;100912.91;2084779;28;19920;-41
2022/01/16 02:01:19;;;;;;;;;;;;;;;19.06;42.54;100916.38;2084572;28;19927;-41
2022/01/16 02:02:20;;;;;;;;;;;;;;;19.08;42.37;100913.47;2085193;28;20330;-41
2022/01/16 02:03:31;;;;;;;;;;;;;;;19.09;42.49;100909.78;2085588;28;19920;-41
2022/01/16 02:04:31;;;;;;;;;;;;;;;19.12;42.37;100909.50;2082326;28;20263;-41
2022/01/16 02:05:33;;;;;;;;;;;;;;;19.12;42.31;100904.91;2080688;28;19917;-41
2022/01/16 02:06:33;;;;;;;;;;;;;;;19.14;42.27;100911.09;2082991;28;20372;-41
2022/01/16 02:07:34;;;;;;;;;;;;;;;19.14;42.30;100897.44;2080648;28;20334;-41
2022/01/16 02:08:35;;;;;;;;;;;;;;;19.19;42.22;100910.72;2079438;28;19920;-41
2022/01/16 02:09:37;;;;;;;;;;;;;;;19.19;42.10;100908.84;2081550;28;19924;-41
2022/01/16 02:10:38;;;;;;;;;;;;;;;19.22;42.02;100904.97;2084801;28;20401;-41
2022/01/16 02:11:38;;;;;;;;;;;;;;;19.23;42.04;100902.13;2085319;28;20179;-41
2022/01/16 02:12:42;;;;;;;;;;;;;;;19.27;41.92;100911.78;2084760;28;19919;-41
2022/01/16 02:13:56;;;;;;;;;;;;;;;19.28;41.96;100902.59;2084494;28;19920;-41
2022/01/16 02:15:06;;;;;;;;;;;;;;;19.32;41.83;100900.47;2084897;28;20054;-41
2022/01/16 02:31:25;;;;;;;;;;;;;;;19.57;41.14;100893.72;2078431;28;19974;-41
2022/01/16 02:33:23;;;;;;;;;;;;;;;19.57;41.19;100888.25;2084081;28;20258;-41
2022/01/16 02:34:51;;;;;;;;;;;;;;;19.60;41.02;100889.84;2084634;28;19916;-41
2022/01/16 02:35:55;;;;;;;;;;;;;;;19.60;41.11;100898.94;2081905;28;19920;-41
2022/01/16 02:36:59;;;;;;;;;;;;;;;19.61;41.09;100891.59;2083381;28;19995;-41
2022/01/16 02:38:00;;;;;;;;;;;;;;;19.62;41.08;100896.94;2081388;28;19927;-41
2022/01/16 02:39:05;;;;;;;;;;;;;;;19.64;40.95;100905.00;2081729;28;20629;-41
2022/01/16 02:40:16;;;;;;;;;;;;;;;19.64;40.93;100894.06;2085018;28;20007;-41
2022/01/16 02:41:17;;;;;;;;;;;;;;;19.65;40.91;100891.19;2084788;28;19909;-41
2022/01/16 02:42:18;;;;;;;;;;;;;;;19.64;40.87;100883.97;2084707;28;20388;-41
2022/01/16 02:43:28;;;;;;;;;;;;;;;19.65;40.88;100883.00;2082854;28;20003;-41
2022/01/16 02:45:34;;;;;;;;;;;;;;;19.68;40.91;100890.09;2081014;28;19909;-41
2022/01/16 02:47:34;;;;;;;;;;;;;;;19.70;40.80;100894.44;2085214;28;19967;-41
2022/01/16 02:48:35;;;;;;;;;;;;;;;19.70;40.87;100894.44;2080198;28;19952;-41
2022/01/16 02:49:35;;;;;;;;;;;;;;;19.70;40.72;100891.69;2083173;28;20334;-41
2022/01/16 02:50:36;;;;;;;;;;;;;;;19.70;40.79;100893.56;2084757;28;19952;-41
2022/01/16 02:51:36;;;;;;;;;;;;;;;19.69;40.67;100900.88;2084450;28;20088;-41
2022/01/16 02:52:37;;;;;;;;;;;;;;;19.68;40.76;100893.69;2084125;28;19920;-41
2022/01/16 02:53:37;;;;;;;;;;;;;;;19.70;40.79;100905.38;2081529;28;20365;-41
2022/01/16 02:54:39;;;;;;;;;;;;;;;19.69;40.70;100900.88;2081226;28;19920;-41
2022/01/16 02:55:41;;;;;;;;;;;;;;;19.68;40.74;100901.91;2079496;28;19926;-41
2022/01/16 02:56:43;;;;;;;;;;;;;;;19.70;40.78;100899.91;2082105;28;19956;-41
2022/01/16 02:57:43;;;;;;;;;;;;;;;19.68;40.77;100907.38;2077739;28;20414;-41
2022/01/16 02:58:44;;;;;;;;;;;;;;;19.67;40.80;100911.13;2082854;28;20193;-41
2022/01/16 02:59:48;;;;;;;;;;;;;;;19.69;40.76;100909.09;2083150;28;19919;-41
2022/01/16 03:00:49;;;;;;;;;;;;;;;19.68;40.84;100912.84;2085491;28;19917;-41
2022/01/16 03:01:49;;;;;;;;;;;;;;;19.68;40.77;100912.84;2082779;28;20349;-41
2022/01/16 03:02:50;;;;;;;;;;;;;;;19.70;40.76;100909.97;2083290;28;20352;-41
2022/01/16 03:03:51;;;;;;;;;;;;;;;19.70;40.71;100905.38;2080489;28;20326;-41
2022/01/16 03:04:52;;;;;;;;;;;;;;;19.72;40.74;100901.63;2084512;28;19943;-41
2022/01/16 03:05:52;;;;;;;;;;;;;;;19.71;40.72;100900.75;2081803;28;20361;-41
2022/01/16 03:06:52;;;;;;;;;;;;;;;19.72;40.72;100901.63;2085056;28;20327;-41
2022/01/16 03:07:53;;;;;;;;;;;;;;;19.73;40.70;100900.63;2081418;28;19924;-41
2022/01/16 03:08:53;;;;;;;;;;;;;;;19.72;40.76;100902.50;2079784;28;20203;-41
2022/01/16 03:11:35;;;;;;;;;;;;;;;19.73;40.64;100893.28;2083038;28;19920;-41
2022/01/16 03:12:36;;;;;;;;;;;;;;;19.73;40.66;100892.44;2083423;28;19921;-41
2022/01/16 03:13:39;;;;;;;;;;;;;;;19.73;40.55;100896.03;2080402;28;19924;-41
2022/01/16 03:14:39;;;;;;;;;;;;;;;19.74;40.60;100892.28;2083063;28;20020;-41
2022/01/16 03:15:40;;;;;;;;;;;;;;;19.75;40.56;100904.97;2084768;28;19991;-41
2022/01/16 03:16:43;;;;;;;;;;;;;;;19.75;40.59;100902.25;2085252;28;19969;-41
2022/01/16 03:21:54;;;;;;;;;;;;;;;19.75;40.37;100902.25;2085194;28;19928;-41
2022/01/16 03:22:54;;;;;;;;;;;;;;;19.75;40.49;100890.44;2083449;28;20592;-41
2022/01/16 03:23:54;;;;;;;;;;;;;;;19.74;40.49;100894.16;2084770;28;19924;-41
2022/01/16 03:24:54;;;;;;;;;;;;;;;19.73;40.55;100884.22;2084165;28;19921;-41
2022/01/16 03:25:55;;;;;;;;;;;;;;;19.72;40.52;100894.31;2083859;28;19920;-41
2022/01/16 03:26:57;;;;;;;;;;;;;;;19.73;40.55;100892.44;2083732;28;19967;-41
2022/01/16 03:27:57;;;;;;;;;;;;;;;19.72;40.53;100886.09;2078958;28;19934;-41
2022/01/16 03:28:58;;;;;;;;;;;;;;;19.72;40.49;100885.22;2078993;28;19959;-41
2022/01/16 03:30:00;;;;;;;;;;;;;;;19.70;40.32;100888.09;2086238;28;20170;-41
2022/01/16 03:31:01;;;;;;;;;;;;;;;19.71;40.48;100878.88;2080743;28;19920;-41
2022/01/16 03:32:03;;;;;;;;;;;;;;;19.69;40.62;100884.47;2081912;28;19952;-41
2022/01/16 03:33:04;;;;;;;;;;;;;;;19.69;40.58;100895.41;2082001;28;19929;-41
2022/01/16 03:34:04;;;;;;;;;;;;;;;19.68;40.50;100884.63;2084564;28;20337;-41
2022/01/16 03:35:04;;;;;;;;;;;;;;;19.66;40.51;100881.97;2082242;28;19925;-41
2022/01/16 03:36:05;;;;;;;;;;;;;;;19.67;40.57;100889.25;2078575;28;20469;-41
2022/01/16 03:37:05;;;;;;;;;;;;;;;19.66;40.49;100881.97;2081805;28;19960;-41
2022/01/16 03:38:06;;;;;;;;;;;;;;;19.65;40.57;100885.72;2084672;28;19920;-41
2022/01/16 03:39:06;;;;;;;;;;;;;;;19.65;40.66;100885.72;2084891;28;19920;-41
2022/01/16 03:40:10;;;;;;;;;;;;;;;19.64;40.69;100870.31;2085374;28;19920;-41
2022/01/16 03:41:10;;;;;;;;;;;;;;;19.64;40.70;100881.25;2084390;28;20350;-41
2022/01/16 03:42:11;;;;;;;;;;;;;;;19.62;40.64;100875.06;2084822;28;19947;-40
2022/01/16 03:43:14;;;;;;;;;;;;;;;19.64;40.58;100878.50;2085288;28;19942;-41
2022/01/16 03:44:15;;;;;;;;;;;;;;;19.62;40.57;100874.19;2083231;28;20159;-41
2022/01/16 03:45:16;;;;;;;;;;;;;;;19.62;40.63;100875.06;2084627;28;20019;-41
2022/01/16 03:46:16;;;;;;;;;;;;;;;19.61;40.57;100878.78;2079849;28;19982;-41
2022/01/16 03:47:17;;;;;;;;;;;;;;;19.61;40.63;100877.94;2081090;28;19978;-41
2022/01/16 03:48:17;;;;;;;;;;;;;;;19.59;40.59;100886.25;2081486;28;20008;-41
2022/01/16 03:49:18;;;;;;;;;;;;;;;19.59;40.66;100878.03;2082337;28;20319;-41
2022/01/16 03:50:19;;;;;;;;;;;;;;;19.59;40.71;100880.78;2085004;28;19931;-41
2022/01/16 03:51:19;;;;;;;;;;;;;;;19.58;40.65;100879.06;2084263;28;19956;-41
2022/01/16 03:52:19;;;;;;;;;;;;;;;19.59;40.59;100885.41;2082019;28;19912;-41
2022/01/16 03:53:20;;;;;;;;;;;;;;;19.58;40.67;100884.53;2079983;28;19955;-41
2022/01/16 03:54:22;;;;;;;;;;;;;;;19.58;40.67;100880.94;2079716;28;20007;-42
2022/01/16 03:55:22;;;;;;;;;;;;;;;19.58;40.65;100878.22;2084274;28;20219;-41
2022/01/16 03:56:23;;;;;;;;;;;;;;;19.57;40.64;100882.78;2084699;28;19931;-41
2022/01/16 03:57:23;;;;;;;;;;;;;;;19.56;40.72;100881.06;2083759;28;19931;-40
2022/01/16 03:58:24;;;;;;;;;;;;;;;19.55;40.69;100879.34;2085146;28;20175;-41
2022/01/16 03:59:24;;;;;;;;;;;;;;;19.55;40.73;100890.28;2084551;28;19960;-41
2022/01/16 04:00:25;;;;;;;;;;;;;;;19.55;40.76;100879.34;2082860;28;20337;-41
2022/01/16 04:01:25;;;;;;;;;;;;;;;19.54;40.71;100882.19;2084220;28;20332;-41
2022/01/16 04:02:25;;;;;;;;;;;;;;;19.55;40.72;100883.91;2083475;28;19944;-41
2022/01/16 04:03:26;;;;;;;;;;;;;;;19.54;40.67;100880.31;2084485;28;20483;-41
2022/01/16 04:04:26;;;;;;;;;;;;;;;19.52;40.71;100879.59;2083973;28;19921;-41
2022/01/16 04:05:27;;;;;;;;;;;;;;;19.53;40.70;100875.88;2084266;28;19920;-41
2022/01/16 04:06:27;;;;;;;;;;;;;;;19.53;40.70;100878.59;2084069;28;20305;-41
2022/01/16 04:07:33;;;;;;;;;;;;;;;19.52;40.69;100876.84;2084917;28;19925;-41
2022/01/16 04:08:33;;;;;;;;;;;;;;;19.51;40.73;100871.53;2084579;28;19927;-41
2022/01/16 04:09:34;;;;;;;;;;;;;;;19.50;40.63;100878.88;2085103;28;19964;-41
2022/01/16 04:10:34;;;;;;;;;;;;;;;19.50;40.77;100881.63;2083905;28;19912;-41
2022/01/16 04:11:37;;;;;;;;;;;;;;;19.50;40.77;100873.41;2084310;28;19913;-41
2022/01/16 04:12:39;;;;;;;;;;;;;;;19.50;40.73;100876.16;2083406;28;20499;-41
2022/01/16 04:13:48;;;;;;;;;;;;;;;19.49;40.70;100874.38;2078603;28;19924;-41
2022/01/16 04:15:49;;;;;;;;;;;;;;;19.46;40.78;100872.78;2084930;28;19920;-41
2022/01/16 04:16:50;;;;;;;;;;;;;;;19.48;40.67;100878.13;2084818;28;19920;-41
2022/01/16 04:17:50;;;;;;;;;;;;;;;19.45;40.75;100879.28;2082459;28;20223;-41
2022/01/16 04:18:51;;;;;;;;;;;;;;;19.47;40.72;100876.38;2084388;28;19916;-41
2022/01/16 04:19:52;;;;;;;;;;;;;;;19.47;40.57;100888.19;2083004;28;19916;-41
2022/01/16 04:20:52;;;;;;;;;;;;;;;19.46;40.66;100889.19;2084140;28;20058;-41
2022/01/16 04:21:52;;;;;;;;;;;;;;;19.47;40.71;100879.97;2084512;28;19920;-41
2022/01/16 04:22:53;;;;;;;;;;;;;;;19.47;40.74;100887.31;2084465;28;20150;-41
2022/01/16 04:23:53;;;;;;;;;;;;;;;19.46;40.72;100880.13;2084445;28;20154;-41
2022/01/16 04:24:54;;;;;;;;;;;;;;;19.46;40.75;100880.13;2079468;28;20023;-41
2022/01/16 04:25:54;;;;;;;;;;;;;;;19.46;40.62;100888.34;2077170;28;20153;-41
2022/01/16 04:26:54;;;;;;;;;;;;;;;19.45;40.70;100878.38;2081011;28;20494;-41
2022/01/16 04:27:55;;;;;;;;;;;;;;;19.46;40.64;100885.59;2079668;28;19927;-41
2022/01/16 04:28:55;;;;;;;;;;;;;;;19.45;40.71;100886.59;2084077;28;20415;-41
2022/01/16 04:29:55;;;;;;;;;;;;;;;19.45;40.73;100889.31;2084746;28;20305;-41
2022/01/16 04:30:56;;;;;;;;;;;;;;;19.45;40.59;100894.78;2084480;28;19966;-41
2022/01/16 04:31:56;;;;;;;;;;;;;;;19.45;40.66;100897.53;2083646;28;19970;-41
2022/01/16 04:32:56;;;;;;;;;;;;;;;19.44;40.68;100887.59;2084688;28;20350;-41
2022/01/16 04:33:56;;;;;;;;;;;;;;;19.42;40.68;100882.25;2081082;28;19925;-41
2022/01/16 04:34:57;;;;;;;;;;;;;;;19.43;40.65;100891.34;2084619;28;20302;-41
2022/01/16 04:35:57;;;;;;;;;;;;;;;19.44;40.63;100898.53;2079519;28;19925;-41
2022/01/16 04:36:57;;;;;;;;;;;;;;;19.43;40.59;100891.34;2084165;28;19920;-41
2022/01/16 04:37:58;;;;;;;;;;;;;;;19.42;40.59;100892.31;2078187;28;19920;-41
2022/01/16 04:38:58;;;;;;;;;;;;;;;19.42;40.64;100889.59;2084164;28;20020;-41
2022/01/16 04:40:00;;;;;;;;;;;;;;;19.41;40.66;100893.34;2085100;28;19983;-41
2022/01/16 04:43:47;;;;;;;;;;;;;;;19.39;40.69;100890.72;2082294;28;19920;-41
2022/01/16 04:44:49;;;;;;;;;;;;;;;19.39;40.60;100898.06;2083973;28;19920;-41
2022/01/16 04:45:49;;;;;;;;;;;;;;;19.40;40.60;100891.59;2081492;28;20050;-41
2022/01/16 04:46:50;;;;;;;;;;;;;;;19.39;40.63;100884.41;2082636;28;20388;-41
2022/01/16 04:47:50;;;;;;;;;;;;;;;19.37;40.63;100884.53;2083564;28;20281;-41
2022/01/16 04:48:51;;;;;;;;;;;;;;;19.37;40.71;100892.72;2084429;28;19946;-41
2022/01/16 04:49:52;;;;;;;;;;;;;;;19.37;40.63;100898.19;2084358;28;19920;-41
2022/01/16 04:50:52;;;;;;;;;;;;;;;19.38;40.63;100899.09;2082268;28;20322;-41
2022/01/16 04:51:52;;;;;;;;;;;;;;;19.37;40.71;100908.25;2083931;28;19916;-41
2022/01/16 04:52:53;;;;;;;;;;;;;;;19.36;40.68;100903.81;2083906;28;19938;-41
2022/01/16 04:53:53;;;;;;;;;;;;;;;19.35;40.75;100910.25;2083153;28;19921;-41
2022/01/16 04:54:53;;;;;;;;;;;;;;;19.35;40.60;100911.13;2083960;28;20185;-41
2022/01/16 04:55:54;;;;;;;;;;;;;;;19.36;40.65;100912.00;2082210;28;20040;-41
2022/01/16 04:56:54;;;;;;;;;;;;;;;19.34;40.64;100911.28;2082493;28;19924;-41
2022/01/16 04:57:54;;;;;;;;;;;;;;;19.34;40.56;100908.53;2081108;28;19951;-41
2022/01/16 04:58:55;;;;;;;;;;;;;;;19.33;40.58;100906.78;2083886;28;20349;-41
2022/01/16 04:59:55;;;;;;;;;;;;;;;19.34;40.63;100911.28;2082560;28;19924;-41
2022/01/16 05:00:55;;;;;;;;;;;;;;;19.33;40.64;100912.25;2080880;28;20597;-41
2022/01/16 05:01:56;;;;;;;;;;;;;;;19.33;40.70;100912.25;2084405;28;20022;-41
2022/01/16 05:02:56;;;;;;;;;;;;;;;19.33;40.63;100912.25;2084177;28;19954;-41
2022/01/16 05:03:56;;;;;;;;;;;;;;;19.32;40.52;100916.00;2084462;28;20009;-41
2022/01/16 05:04:56;;;;;;;;;;;;;;;19.31;40.61;100909.66;2082641;28;19971;-41
2022/01/16 05:05:57;;;;;;;;;;;;;;;19.31;40.71;100914.28;2082871;28;19920;-41
2022/01/16 05:06:57;;;;;;;;;;;;;;;19.31;40.58;100917.00;2082655;28;19913;-41
2022/01/16 05:07:58;;;;;;;;;;;;;;;19.31;40.60;100919.75;2086209;28;19920;-41
2022/01/16 05:08:58;;;;;;;;;;;;;;;19.30;40.67;100907.06;2085416;28;19917;-41
2022/01/16 05:09:58;;;;;;;;;;;;;;;19.30;40.59;100907.06;2085985;28;19920;-41
2022/01/16 05:10:59;;;;;;;;;;;;;;;19.31;40.57;100903.34;2086252;28;20065;-41
2022/01/16 05:12:02;;;;;;;;;;;;;;;19.30;40.71;100901.59;2082761;28;20024;-41
2022/01/16 05:13:28;;;;;;;;;;;;;;;19.31;40.65;100900.59;2085800;28;20060;-41
2022/01/16 05:17:07;;;;;;;;;;;;;;;19.31;40.60;100898.72;2079809;28;19917;-41
2022/01/16 05:18:08;;;;;;;;;;;;;;;19.32;40.42;100896.84;2084578;28;19920;-41
2022/01/16 05:19:12;;;;;;;;;;;;;;;19.32;40.62;100905.06;2083425;28;19921;-41
2022/01/16 05:20:13;;;;;;;;;;;;;;;19.33;40.52;100907.69;2079182;28;19919;-42
2022/01/16 05:21:13;;;;;;;;;;;;;;;19.33;40.58;100907.69;2085943;28;20298;-41
2022/01/16 05:22:14;;;;;;;;;;;;;;;19.32;40.54;100905.91;2082362;28;20286;-41
2022/01/16 05:23:14;;;;;;;;;;;;;;;19.34;40.50;100903.06;2082285;28;19916;-42
2022/01/16 05:24:15;;;;;;;;;;;;;;;19.34;40.50;100908.53;2082709;28;19963;-41
2022/01/16 05:25:17;;;;;;;;;;;;;;;19.34;40.54;100903.06;2085651;28;19937;-41
2022/01/16 05:26:19;;;;;;;;;;;;;;;19.33;40.47;100904.94;2083298;28;19928;-41
2022/01/16 05:27:19;;;;;;;;;;;;;;;19.32;40.58;100907.78;2085305;28;19916;-41
2022/01/16 05:28:19;;;;;;;;;;;;;;;19.31;40.56;100919.75;2085376;28;19964;-40
2022/01/16 05:29:20;;;;;;;;;;;;;;;19.31;40.59;100919.75;2085777;28;20281;-41
2022/01/16 05:30:20;;;;;;;;;;;;;;;19.31;40.43;100919.75;2085888;28;19923;-41
2022/01/16 05:31:21;;;;;;;;;;;;;;;19.28;40.55;100924.47;2086112;28;20243;-41
2022/01/16 05:32:21;;;;;;;;;;;;;;;19.30;40.60;100934.38;2084837;28;19924;-41
2022/01/16 05:33:21;;;;;;;;;;;;;;;19.30;40.61;100939.84;2085288;28;20401;-40
2022/01/16 05:34:25;;;;;;;;;;;;;;;19.28;40.63;100949.06;2085972;28;19916;-41
2022/01/16 05:35:26;;;;;;;;;;;;;;;19.27;40.57;100955.53;2082133;28;19909;-41
2022/01/16 05:36:26;;;;;;;;;;;;;;;19.28;40.58;100954.53;2079809;28;19921;-41
2022/01/16 05:37:27;;;;;;;;;;;;;;;19.28;40.50;100965.47;2086461;28;19912;-41
2022/01/16 05:38:28;;;;;;;;;;;;;;;19.27;40.57;100963.72;2084375;28;19928;-41
2022/01/16 05:39:28;;;;;;;;;;;;;;;19.27;40.47;100968.31;2083055;28;19916;-41
2022/01/16 05:40:29;;;;;;;;;;;;;;;19.27;40.49;100968.31;2083675;28;20290;-41
2022/01/16 05:41:29;;;;;;;;;;;;;;;19.25;40.51;100971.19;2086602;28;19927;-41
2022/01/16 05:42:32;;;;;;;;;;;;;;;19.24;40.51;100980.38;2081570;28;19921;-41
2022/01/16 05:43:32;;;;;;;;;;;;;;;19.24;40.46;100977.66;2083429;28;20204;-41
2022/01/16 05:44:32;;;;;;;;;;;;;;;19.23;40.47;100981.41;2080482;28;20122;-41
2022/01/16 05:45:32;;;;;;;;;;;;;;;19.23;40.58;100975.94;2080241;28;19924;-41
2022/01/16 05:46:33;;;;;;;;;;;;;;;19.22;40.63;100976.91;2085302;28;19978;-41
2022/01/16 05:47:33;;;;;;;;;;;;;;;19.21;40.54;100980.66;2081661;28;19920;-41
2022/01/16 05:48:34;;;;;;;;;;;;;;;19.20;40.49;100978.91;2080592;28;19920;-41
2022/01/16 05:49:34;;;;;;;;;;;;;;;19.20;40.54;100976.16;2084309;28;19928;-41
2022/01/16 05:50:34;;;;;;;;;;;;;;;19.19;40.51;100971.72;2094017;28;20342;-41
2022/01/16 05:51:34;;;;;;;;;;;;;;;19.19;40.51;100970.84;2092227;28;19994;-41
2022/01/16 05:52:35;;;;;;;;;;;;;;;19.18;40.50;100978.19;2082372;28;20250;-41
2022/01/16 05:53:36;;;;;;;;;;;;;;;19.18;40.50;100975.44;2085381;28;19970;-41
2022/01/16 05:54:36;;;;;;;;;;;;;;;19.17;40.52;100970.09;2084951;28;19923;-41
2022/01/16 05:55:36;;;;;;;;;;;;;;;19.16;40.54;100974.72;2083695;28;19924;-41
2022/01/16 05:56:37;;;;;;;;;;;;;;;19.16;40.62;100969.25;2083296;28;20443;-41
2022/01/16 05:57:37;;;;;;;;;;;;;;;19.15;40.60;100972.94;2085746;28;19960;-41
2022/01/16 05:58:39;;;;;;;;;;;;;;;19.15;40.59;100972.09;2085390;28;19917;-41